sensor_id;sensor_type;location;lat;lon;timestamp;P1;durP1;ratioP1;P2;durP2;ratioP2
64520;SDS011;50896;46.714;17.322;2024-02-21T00:03:29;4.00;;;1.20;;
64520;SDS011;50896;46.714;17.322;2024-02-21T00:05:56;3.10;;;1.10;;
64520;SDS011;50896;46.714;17.322;2024-02-21T00:08:24;2.67;;;1.38;;
64520;SDS011;50896;46.714;17.322;2024-02-21T00:10:51;2.92;;;1.13;;
64520;SDS011;50896;46.714;17.322;2024-02-21T00:13:18;3.53;;;1.23;;
64520;SDS011;50896;46.714;17.322;2024-02-21T00:15:45;4.63;;;1.13;;
64520;SDS011;50896;46.714;17.322;2024-02-21T00:18:12;4.10;;;1.30;;
64520;SDS011;50896;46.714;17.322;2024-02-21T00:20:39;3.10;;;1.23;;
64520;SDS011;50896;46.714;17.322;2024-02-21T00:23:06;3.58;;;1.20;;
64520;SDS011;50896;46.714;17.322;2024-02-21T00:25:33;4.22;;;1.67;;
64520;SDS011;50896;46.714;17.322;2024-02-21T00:28:00;2.70;;;1.00;;
64520;SDS011;50896;46.714;17.322;2024-02-21T00:30:26;3.53;;;1.40;;
64520;SDS011;50896;46.714;17.322;2024-02-21T00:32:54;4.03;;;1.48;;
64520;SDS011;50896;46.714;17.322;2024-02-21T00:35:20;4.35;;;1.00;;
64520;SDS011;50896;46.714;17.322;2024-02-21T00:37:48;2.50;;;1.15;;
64520;SDS011;50896;46.714;17.322;2024-02-21T00:40:14;2.20;;;1.10;;
64520;SDS011;50896;46.714;17.322;2024-02-21T00:42:46;5.45;;;1.60;;
64520;SDS011;50896;46.714;17.322;2024-02-21T00:45:13;2.55;;;1.40;;
64520;SDS011;50896;46.714;17.322;2024-02-21T00:47:40;3.45;;;1.45;;
64520;SDS011;50896;46.714;17.322;2024-02-21T00:50:07;2.15;;;1.48;;
64520;SDS011;50896;46.714;17.322;2024-02-21T00:52:36;5.47;;;1.92;;
64520;SDS011;50896;46.714;17.322;2024-02-21T00:55:03;2.63;;;1.73;;
64520;SDS011;50896;46.714;17.322;2024-02-21T00:57:34;4.18;;;1.63;;
64520;SDS011;50896;46.714;17.322;2024-02-21T01:00:01;2.53;;;1.52;;
64520;SDS011;50896;46.714;17.322;2024-02-21T01:02:31;3.22;;;1.50;;
64520;SDS011;50896;46.714;17.322;2024-02-21T01:04:58;3.85;;;1.67;;
64520;SDS011;50896;46.714;17.322;2024-02-21T01:07:25;2.95;;;1.50;;
64520;SDS011;50896;46.714;17.322;2024-02-21T01:09:52;5.72;;;1.85;;
64520;SDS011;50896;46.714;17.322;2024-02-21T01:12:19;2.72;;;1.52;;
64520;SDS011;50896;46.714;17.322;2024-02-21T01:14:46;3.40;;;2.03;;
64520;SDS011;50896;46.714;17.322;2024-02-21T01:17:13;3.53;;;1.85;;
64520;SDS011;50896;46.714;17.322;2024-02-21T01:19:40;3.55;;;2.45;;
64520;SDS011;50896;46.714;17.322;2024-02-21T01:22:06;3.88;;;2.25;;
64520;SDS011;50896;46.714;17.322;2024-02-21T01:24:33;5.30;;;2.00;;
64520;SDS011;50896;46.714;17.322;2024-02-21T01:27:00;3.67;;;2.08;;
64520;SDS011;50896;46.714;17.322;2024-02-21T01:29:28;6.82;;;2.10;;
64520;SDS011;50896;46.714;17.322;2024-02-21T01:31:55;3.40;;;2.20;;
64520;SDS011;50896;46.714;17.322;2024-02-21T01:34:22;2.67;;;1.60;;
64520;SDS011;50896;46.714;17.322;2024-02-21T01:36:49;4.85;;;1.73;;
64520;SDS011;50896;46.714;17.322;2024-02-21T01:39:16;3.45;;;1.73;;
64520;SDS011;50896;46.714;17.322;2024-02-21T01:41:43;4.60;;;1.77;;
64520;SDS011;50896;46.714;17.322;2024-02-21T01:44:09;3.35;;;1.80;;
64520;SDS011;50896;46.714;17.322;2024-02-21T01:46:36;3.97;;;1.83;;
64520;SDS011;50896;46.714;17.322;2024-02-21T01:49:03;2.72;;;1.52;;
64520;SDS011;50896;46.714;17.322;2024-02-21T01:51:31;3.35;;;1.70;;
64520;SDS011;50896;46.714;17.322;2024-02-21T01:53:59;2.72;;;1.50;;
64520;SDS011;50896;46.714;17.322;2024-02-21T01:56:26;3.97;;;1.80;;
64520;SDS011;50896;46.714;17.322;2024-02-21T01:58:54;4.65;;;1.58;;
64520;SDS011;50896;46.714;17.322;2024-02-21T02:01:22;2.90;;;1.90;;
64520;SDS011;50896;46.714;17.322;2024-02-21T02:03:49;3.75;;;1.88;;
64520;SDS011;50896;46.714;17.322;2024-02-21T02:06:16;4.10;;;1.88;;
64520;SDS011;50896;46.714;17.322;2024-02-21T02:08:43;3.25;;;1.95;;
64520;SDS011;50896;46.714;17.322;2024-02-21T02:11:12;4.53;;;1.85;;
64520;SDS011;50896;46.714;17.322;2024-02-21T02:13:40;3.53;;;1.83;;
64520;SDS011;50896;46.714;17.322;2024-02-21T02:16:07;3.85;;;1.95;;
64520;SDS011;50896;46.714;17.322;2024-02-21T02:18:34;2.70;;;1.40;;
64520;SDS011;50896;46.714;17.322;2024-02-21T02:21:01;3.55;;;1.60;;
64520;SDS011;50896;46.714;17.322;2024-02-21T02:23:30;3.20;;;1.80;;
64520;SDS011;50896;46.714;17.322;2024-02-21T02:25:58;2.55;;;1.67;;
64520;SDS011;50896;46.714;17.322;2024-02-21T02:28:27;3.87;;;1.80;;
64520;SDS011;50896;46.714;17.322;2024-02-21T02:30:54;3.05;;;1.50;;
64520;SDS011;50896;46.714;17.322;2024-02-21T02:33:21;2.78;;;1.60;;
64520;SDS011;50896;46.714;17.322;2024-02-21T02:35:48;2.15;;;1.83;;
64520;SDS011;50896;46.714;17.322;2024-02-21T02:38:14;5.22;;;1.73;;
64520;SDS011;50896;46.714;17.322;2024-02-21T02:40:42;3.85;;;1.90;;
64520;SDS011;50896;46.714;17.322;2024-02-21T02:43:09;3.75;;;1.58;;
64520;SDS011;50896;46.714;17.322;2024-02-21T02:45:36;2.88;;;1.63;;
64520;SDS011;50896;46.714;17.322;2024-02-21T02:48:04;3.28;;;1.48;;
64520;SDS011;50896;46.714;17.322;2024-02-21T02:50:31;2.47;;;1.50;;
64520;SDS011;50896;46.714;17.322;2024-02-21T02:52:58;2.47;;;1.60;;
64520;SDS011;50896;46.714;17.322;2024-02-21T02:55:26;2.90;;;1.70;;
64520;SDS011;50896;46.714;17.322;2024-02-21T02:57:53;3.17;;;1.70;;
64520;SDS011;50896;46.714;17.322;2024-02-21T03:00:20;3.35;;;1.60;;
64520;SDS011;50896;46.714;17.322;2024-02-21T03:02:48;2.28;;;1.67;;
64520;SDS011;50896;46.714;17.322;2024-02-21T03:05:17;1.98;;;1.40;;
64520;SDS011;50896;46.714;17.322;2024-02-21T03:07:48;2.53;;;1.52;;
64520;SDS011;50896;46.714;17.322;2024-02-21T03:10:16;2.75;;;1.45;;
64520;SDS011;50896;46.714;17.322;2024-02-21T03:12:45;4.13;;;1.75;;
64520;SDS011;50896;46.714;17.322;2024-02-21T03:15:12;3.45;;;1.90;;
64520;SDS011;50896;46.714;17.322;2024-02-21T03:17:41;2.90;;;1.90;;
64520;SDS011;50896;46.714;17.322;2024-02-21T03:20:09;5.30;;;1.80;;
64520;SDS011;50896;46.714;17.322;2024-02-21T03:22:38;2.53;;;1.70;;
64520;SDS011;50896;46.714;17.322;2024-02-21T03:25:06;3.45;;;1.63;;
64520;SDS011;50896;46.714;17.322;2024-02-21T03:27:34;3.05;;;1.67;;
64520;SDS011;50896;46.714;17.322;2024-02-21T03:30:01;3.17;;;2.17;;
64520;SDS011;50896;46.714;17.322;2024-02-21T03:32:29;1.80;;;1.42;;
64520;SDS011;50896;46.714;17.322;2024-02-21T03:34:56;3.58;;;1.70;;
64520;SDS011;50896;46.714;17.322;2024-02-21T03:37:23;3.83;;;1.83;;
64520;SDS011;50896;46.714;17.322;2024-02-21T03:39:50;2.45;;;1.55;;
64520;SDS011;50896;46.714;17.322;2024-02-21T03:42:17;3.22;;;1.80;;
64520;SDS011;50896;46.714;17.322;2024-02-21T03:44:45;2.80;;;1.50;;
64520;SDS011;50896;46.714;17.322;2024-02-21T03:47:12;2.85;;;1.70;;
64520;SDS011;50896;46.714;17.322;2024-02-21T03:49:38;5.68;;;2.08;;
64520;SDS011;50896;46.714;17.322;2024-02-21T03:52:06;3.25;;;1.48;;
64520;SDS011;50896;46.714;17.322;2024-02-21T03:54:33;2.83;;;1.83;;
64520;SDS011;50896;46.714;17.322;2024-02-21T03:57:00;4.82;;;2.00;;
64520;SDS011;50896;46.714;17.322;2024-02-21T03:59:27;1.90;;;1.30;;
64520;SDS011;50896;46.714;17.322;2024-02-21T04:01:54;3.28;;;1.60;;
64520;SDS011;50896;46.714;17.322;2024-02-21T04:04:21;2.53;;;1.52;;
64520;SDS011;50896;46.714;17.322;2024-02-21T04:06:48;3.42;;;1.63;;
64520;SDS011;50896;46.714;17.322;2024-02-21T04:09:16;3.97;;;1.95;;
64520;SDS011;50896;46.714;17.322;2024-02-21T04:11:43;2.78;;;1.52;;
64520;SDS011;50896;46.714;17.322;2024-02-21T04:14:11;2.42;;;1.60;;
64520;SDS011;50896;46.714;17.322;2024-02-21T04:16:38;3.13;;;1.75;;
64520;SDS011;50896;46.714;17.322;2024-02-21T04:19:08;3.45;;;1.67;;
64520;SDS011;50896;46.714;17.322;2024-02-21T04:21:35;3.97;;;1.77;;
64520;SDS011;50896;46.714;17.322;2024-02-21T04:24:02;2.08;;;1.67;;
64520;SDS011;50896;46.714;17.322;2024-02-21T04:26:33;4.03;;;1.77;;
64520;SDS011;50896;46.714;17.322;2024-02-21T04:29:00;2.28;;;1.75;;
64520;SDS011;50896;46.714;17.322;2024-02-21T04:31:27;3.80;;;1.70;;
64520;SDS011;50896;46.714;17.322;2024-02-21T04:33:55;5.60;;;1.90;;
64520;SDS011;50896;46.714;17.322;2024-02-21T04:36:22;2.60;;;1.55;;
64520;SDS011;50896;46.714;17.322;2024-02-21T04:38:48;4.38;;;2.15;;
64520;SDS011;50896;46.714;17.322;2024-02-21T04:41:16;2.40;;;1.70;;
64520;SDS011;50896;46.714;17.322;2024-02-21T04:43:45;3.53;;;2.13;;
64520;SDS011;50896;46.714;17.322;2024-02-21T04:46:14;3.83;;;2.08;;
64520;SDS011;50896;46.714;17.322;2024-02-21T04:48:40;4.82;;;2.33;;
64520;SDS011;50896;46.714;17.322;2024-02-21T04:51:07;4.13;;;2.05;;
64520;SDS011;50896;46.714;17.322;2024-02-21T04:53:34;3.80;;;2.20;;
64520;SDS011;50896;46.714;17.322;2024-02-21T04:56:01;4.82;;;2.35;;
64520;SDS011;50896;46.714;17.322;2024-02-21T04:58:28;3.13;;;2.00;;
64520;SDS011;50896;46.714;17.322;2024-02-21T05:00:55;3.92;;;2.20;;
64520;SDS011;50896;46.714;17.322;2024-02-21T05:03:22;2.75;;;2.03;;
64520;SDS011;50896;46.714;17.322;2024-02-21T05:05:49;3.05;;;1.98;;
64520;SDS011;50896;46.714;17.322;2024-02-21T05:08:16;3.58;;;1.95;;
64520;SDS011;50896;46.714;17.322;2024-02-21T05:10:43;4.20;;;2.30;;
64520;SDS011;50896;46.714;17.322;2024-02-21T05:13:10;3.30;;;2.15;;
64520;SDS011;50896;46.714;17.322;2024-02-21T05:15:37;4.20;;;2.40;;
64520;SDS011;50896;46.714;17.322;2024-02-21T05:18:04;3.58;;;2.30;;
64520;SDS011;50896;46.714;17.322;2024-02-21T05:20:31;4.88;;;2.60;;
64520;SDS011;50896;46.714;17.322;2024-02-21T05:22:58;3.92;;;2.53;;
64520;SDS011;50896;46.714;17.322;2024-02-21T05:25:25;4.45;;;2.15;;
64520;SDS011;50896;46.714;17.322;2024-02-21T05:27:52;8.23;;;4.25;;
64520;SDS011;50896;46.714;17.322;2024-02-21T05:30:20;7.00;;;3.58;;
64520;SDS011;50896;46.714;17.322;2024-02-21T05:32:47;9.00;;;3.65;;
64520;SDS011;50896;46.714;17.322;2024-02-21T05:35:14;7.80;;;3.80;;
64520;SDS011;50896;46.714;17.322;2024-02-21T05:37:41;5.28;;;2.90;;
64520;SDS011;50896;46.714;17.322;2024-02-21T05:40:08;4.55;;;3.05;;
64520;SDS011;50896;46.714;17.322;2024-02-21T05:42:36;6.80;;;3.40;;
64520;SDS011;50896;46.714;17.322;2024-02-21T05:45:03;3.92;;;2.70;;
64520;SDS011;50896;46.714;17.322;2024-02-21T05:47:30;6.05;;;2.83;;
64520;SDS011;50896;46.714;17.322;2024-02-21T05:49:57;4.72;;;2.47;;
64520;SDS011;50896;46.714;17.322;2024-02-21T05:52:24;4.80;;;2.88;;
64520;SDS011;50896;46.714;17.322;2024-02-21T05:54:51;3.90;;;2.55;;
64520;SDS011;50896;46.714;17.322;2024-02-21T05:57:18;4.47;;;2.47;;
64520;SDS011;50896;46.714;17.322;2024-02-21T05:59:45;3.75;;;2.30;;
64520;SDS011;50896;46.714;17.322;2024-02-21T06:02:11;4.28;;;2.45;;
64520;SDS011;50896;46.714;17.322;2024-02-21T06:04:39;4.80;;;3.00;;
64520;SDS011;50896;46.714;17.322;2024-02-21T06:07:06;4.95;;;3.00;;
64520;SDS011;50896;46.714;17.322;2024-02-21T06:09:34;4.78;;;2.80;;
64520;SDS011;50896;46.714;17.322;2024-02-21T06:12:01;4.72;;;2.90;;
64520;SDS011;50896;46.714;17.322;2024-02-21T06:14:28;5.65;;;3.60;;
64520;SDS011;50896;46.714;17.322;2024-02-21T06:16:55;8.05;;;3.80;;
64520;SDS011;50896;46.714;17.322;2024-02-21T06:19:21;8.85;;;4.22;;
64520;SDS011;50896;46.714;17.322;2024-02-21T06:21:48;6.97;;;4.05;;
64520;SDS011;50896;46.714;17.322;2024-02-21T06:24:15;7.30;;;3.45;;
64520;SDS011;50896;46.714;17.322;2024-02-21T06:26:42;5.43;;;3.10;;
64520;SDS011;50896;46.714;17.322;2024-02-21T06:29:11;5.78;;;3.00;;
64520;SDS011;50896;46.714;17.322;2024-02-21T06:31:40;4.57;;;3.07;;
64520;SDS011;50896;46.714;17.322;2024-02-21T06:34:07;3.45;;;2.70;;
64520;SDS011;50896;46.714;17.322;2024-02-21T06:36:34;5.63;;;2.88;;
64520;SDS011;50896;46.714;17.322;2024-02-21T06:39:00;5.03;;;2.55;;
64520;SDS011;50896;46.714;17.322;2024-02-21T06:41:27;10.43;;;3.40;;
64520;SDS011;50896;46.714;17.322;2024-02-21T06:43:57;6.72;;;3.20;;
64520;SDS011;50896;46.714;17.322;2024-02-21T06:46:27;7.25;;;3.90;;
64520;SDS011;50896;46.714;17.322;2024-02-21T06:49:01;9.52;;;5.03;;
64520;SDS011;50896;46.714;17.322;2024-02-21T06:51:30;8.40;;;4.50;;
64520;SDS011;50896;46.714;17.322;2024-02-21T06:53:57;10.77;;;4.80;;
64520;SDS011;50896;46.714;17.322;2024-02-21T06:56:24;9.43;;;4.95;;
64520;SDS011;50896;46.714;17.322;2024-02-21T06:58:55;6.97;;;4.13;;
64520;SDS011;50896;46.714;17.322;2024-02-21T07:01:23;7.78;;;4.10;;
64520;SDS011;50896;46.714;17.322;2024-02-21T07:06:19;9.30;;;4.32;;
64520;SDS011;50896;46.714;17.322;2024-02-21T07:08:46;7.18;;;3.20;;
64520;SDS011;50896;46.714;17.322;2024-02-21T07:11:13;8.75;;;3.33;;
64520;SDS011;50896;46.714;17.322;2024-02-21T07:13:40;6.07;;;3.40;;
64520;SDS011;50896;46.714;17.322;2024-02-21T07:16:07;8.52;;;3.33;;
64520;SDS011;50896;46.714;17.322;2024-02-21T07:18:35;11.48;;;3.85;;
64520;SDS011;50896;46.714;17.322;2024-02-21T07:21:02;5.72;;;3.30;;
64520;SDS011;50896;46.714;17.322;2024-02-21T07:23:29;6.50;;;3.88;;
64520;SDS011;50896;46.714;17.322;2024-02-21T07:25:56;7.95;;;3.83;;
64520;SDS011;50896;46.714;17.322;2024-02-21T07:28:22;9.20;;;4.05;;
64520;SDS011;50896;46.714;17.322;2024-02-21T07:30:49;10.65;;;5.18;;
64520;SDS011;50896;46.714;17.322;2024-02-21T07:33:16;9.13;;;3.80;;
64520;SDS011;50896;46.714;17.322;2024-02-21T07:35:43;8.90;;;3.72;;
64520;SDS011;50896;46.714;17.322;2024-02-21T07:38:11;9.18;;;3.55;;
64520;SDS011;50896;46.714;17.322;2024-02-21T07:40:39;7.07;;;3.63;;
64520;SDS011;50896;46.714;17.322;2024-02-21T07:43:07;7.63;;;3.72;;
64520;SDS011;50896;46.714;17.322;2024-02-21T07:45:33;11.73;;;4.47;;
64520;SDS011;50896;46.714;17.322;2024-02-21T07:48:00;9.68;;;4.80;;
64520;SDS011;50896;46.714;17.322;2024-02-21T07:50:27;8.23;;;5.22;;
64520;SDS011;50896;46.714;17.322;2024-02-21T07:52:54;9.82;;;5.90;;
64520;SDS011;50896;46.714;17.322;2024-02-21T07:55:21;10.90;;;6.20;;
64520;SDS011;50896;46.714;17.322;2024-02-21T07:57:48;9.50;;;6.00;;
64520;SDS011;50896;46.714;17.322;2024-02-21T08:00:16;8.18;;;5.22;;
64520;SDS011;50896;46.714;17.322;2024-02-21T08:02:48;12.40;;;6.82;;
64520;SDS011;50896;46.714;17.322;2024-02-21T08:05:15;11.38;;;7.03;;
64520;SDS011;50896;46.714;17.322;2024-02-21T08:07:42;14.73;;;8.05;;
64520;SDS011;50896;46.714;17.322;2024-02-21T08:10:09;20.20;;;12.77;;
64520;SDS011;50896;46.714;17.322;2024-02-21T08:12:36;21.10;;;14.57;;
64520;SDS011;50896;46.714;17.322;2024-02-21T08:15:04;23.80;;;18.77;;
64520;SDS011;50896;46.714;17.322;2024-02-21T08:17:31;23.38;;;17.20;;
64520;SDS011;50896;46.714;17.322;2024-02-21T08:19:58;18.55;;;11.77;;
64520;SDS011;50896;46.714;17.322;2024-02-21T08:22:25;22.52;;;13.55;;
64520;SDS011;50896;46.714;17.322;2024-02-21T08:24:53;29.77;;;16.20;;
64520;SDS011;50896;46.714;17.322;2024-02-21T08:27:20;16.20;;;9.05;;
64520;SDS011;50896;46.714;17.322;2024-02-21T08:29:47;8.35;;;4.05;;
64520;SDS011;50896;46.714;17.322;2024-02-21T08:32:14;6.05;;;2.95;;
64520;SDS011;50896;46.714;17.322;2024-02-21T08:34:41;6.88;;;3.28;;
64520;SDS011;50896;46.714;17.322;2024-02-21T08:37:08;8.95;;;5.28;;
64520;SDS011;50896;46.714;17.322;2024-02-21T08:39:37;17.70;;;8.75;;
64520;SDS011;50896;46.714;17.322;2024-02-21T08:42:04;13.27;;;7.65;;
64520;SDS011;50896;46.714;17.322;2024-02-21T08:44:32;15.55;;;8.63;;
64520;SDS011;50896;46.714;17.322;2024-02-21T08:46:58;23.70;;;11.77;;
64520;SDS011;50896;46.714;17.322;2024-02-21T08:49:26;26.70;;;14.40;;
64520;SDS011;50896;46.714;17.322;2024-02-21T08:52:00;34.40;;;16.10;;
64520;SDS011;50896;46.714;17.322;2024-02-21T08:54:28;21.70;;;12.35;;
64520;SDS011;50896;46.714;17.322;2024-02-21T08:56:55;20.88;;;11.10;;
64520;SDS011;50896;46.714;17.322;2024-02-21T08:59:23;18.00;;;10.13;;
64520;SDS011;50896;46.714;17.322;2024-02-21T09:01:51;12.23;;;6.40;;
64520;SDS011;50896;46.714;17.322;2024-02-21T09:04:20;8.23;;;4.38;;
64520;SDS011;50896;46.714;17.322;2024-02-21T09:06:47;12.73;;;7.15;;
64520;SDS011;50896;46.714;17.322;2024-02-21T09:09:14;12.00;;;6.93;;
64520;SDS011;50896;46.714;17.322;2024-02-21T09:11:41;13.90;;;7.20;;
64520;SDS011;50896;46.714;17.322;2024-02-21T09:14:08;14.15;;;7.63;;
64520;SDS011;50896;46.714;17.322;2024-02-21T09:16:35;26.10;;;13.18;;
64520;SDS011;50896;46.714;17.322;2024-02-21T09:19:01;15.95;;;8.40;;
64520;SDS011;50896;46.714;17.322;2024-02-21T09:21:29;11.88;;;5.10;;
64520;SDS011;50896;46.714;17.322;2024-02-21T09:23:56;11.45;;;4.60;;
64520;SDS011;50896;46.714;17.322;2024-02-21T09:26:26;14.77;;;7.07;;
64520;SDS011;50896;46.714;17.322;2024-02-21T09:28:53;12.18;;;7.00;;
64520;SDS011;50896;46.714;17.322;2024-02-21T09:31:20;8.18;;;4.80;;
64520;SDS011;50896;46.714;17.322;2024-02-21T09:33:47;8.93;;;4.30;;
64520;SDS011;50896;46.714;17.322;2024-02-21T09:36:14;10.25;;;4.40;;
64520;SDS011;50896;46.714;17.322;2024-02-21T09:38:41;31.77;;;13.00;;
64520;SDS011;50896;46.714;17.322;2024-02-21T09:41:15;116.93;;;42.60;;
64520;SDS011;50896;46.714;17.322;2024-02-21T09:43:52;38.15;;;14.98;;
64520;SDS011;50896;46.714;17.322;2024-02-21T09:46:35;18.58;;;7.25;;
64520;SDS011;50896;46.714;17.322;2024-02-21T09:49:34;14.15;;;6.05;;
64520;SDS011;50896;46.714;17.322;2024-02-21T09:52:04;10.48;;;4.82;;
64520;SDS011;50896;46.714;17.322;2024-02-21T09:54:33;11.98;;;5.45;;
64520;SDS011;50896;46.714;17.322;2024-02-21T09:57:01;10.82;;;5.57;;
64520;SDS011;50896;46.714;17.322;2024-02-21T09:59:32;12.30;;;5.05;;
64520;SDS011;50896;46.714;17.322;2024-02-21T10:01:59;10.48;;;4.00;;
64520;SDS011;50896;46.714;17.322;2024-02-21T10:04:29;6.65;;;3.40;;
64520;SDS011;50896;46.714;17.322;2024-02-21T10:06:56;6.78;;;3.17;;
64520;SDS011;50896;46.714;17.322;2024-02-21T10:09:24;6.90;;;2.80;;
64520;SDS011;50896;46.714;17.322;2024-02-21T10:11:56;5.70;;;3.08;;
64520;SDS011;50896;46.714;17.322;2024-02-21T10:14:38;8.50;;;5.32;;
64520;SDS011;50896;46.714;17.322;2024-02-21T10:17:05;7.28;;;3.10;;
64520;SDS011;50896;46.714;17.322;2024-02-21T10:19:37;7.38;;;3.55;;
64520;SDS011;50896;46.714;17.322;2024-02-21T10:22:07;6.75;;;2.80;;
64520;SDS011;50896;46.714;17.322;2024-02-21T10:24:35;7.30;;;3.00;;
64520;SDS011;50896;46.714;17.322;2024-02-21T10:27:09;4.80;;;2.45;;
64520;SDS011;50896;46.714;17.322;2024-02-21T10:29:40;7.90;;;2.88;;
64520;SDS011;50896;46.714;17.322;2024-02-21T10:32:09;6.70;;;3.45;;
64520;SDS011;50896;46.714;17.322;2024-02-21T10:34:38;10.25;;;4.93;;
64520;SDS011;50896;46.714;17.322;2024-02-21T10:37:07;19.63;;;10.32;;
64520;SDS011;50896;46.714;17.322;2024-02-21T10:39:39;11.02;;;5.43;;
64520;SDS011;50896;46.714;17.322;2024-02-21T10:42:09;8.20;;;3.50;;
64520;SDS011;50896;46.714;17.322;2024-02-21T10:44:38;7.20;;;3.40;;
64520;SDS011;50896;46.714;17.322;2024-02-21T10:47:07;9.93;;;4.38;;
64520;SDS011;50896;46.714;17.322;2024-02-21T10:49:42;8.10;;;4.47;;
64520;SDS011;50896;46.714;17.322;2024-02-21T10:52:14;9.50;;;4.85;;
64520;SDS011;50896;46.714;17.322;2024-02-21T10:54:56;8.48;;;4.50;;
64520;SDS011;50896;46.714;17.322;2024-02-21T10:57:27;9.68;;;4.38;;
64520;SDS011;50896;46.714;17.322;2024-02-21T10:59:55;7.97;;;3.45;;
64520;SDS011;50896;46.714;17.322;2024-02-21T11:02:22;6.95;;;3.45;;
64520;SDS011;50896;46.714;17.322;2024-02-21T11:04:50;6.68;;;3.33;;
64520;SDS011;50896;46.714;17.322;2024-02-21T11:07:20;7.07;;;3.70;;
64520;SDS011;50896;46.714;17.322;2024-02-21T11:09:50;10.23;;;4.22;;
64520;SDS011;50896;46.714;17.322;2024-02-21T11:12:22;9.23;;;3.75;;
64520;SDS011;50896;46.714;17.322;2024-02-21T11:14:50;8.60;;;3.35;;
64520;SDS011;50896;46.714;17.322;2024-02-21T11:17:17;6.82;;;3.38;;
64520;SDS011;50896;46.714;17.322;2024-02-21T11:19:45;8.02;;;3.22;;
64520;SDS011;50896;46.714;17.322;2024-02-21T11:22:19;5.93;;;2.97;;
64520;SDS011;50896;46.714;17.322;2024-02-21T11:24:51;5.20;;;2.85;;
64520;SDS011;50896;46.714;17.322;2024-02-21T11:27:20;4.97;;;2.80;;
64520;SDS011;50896;46.714;17.322;2024-02-21T11:29:49;7.00;;;2.95;;
64520;SDS011;50896;46.714;17.322;2024-02-21T11:32:21;8.73;;;3.40;;
64520;SDS011;50896;46.714;17.322;2024-02-21T11:37:31;7.20;;;3.28;;
64520;SDS011;50896;46.714;17.322;2024-02-21T11:40:00;6.07;;;2.80;;
64520;SDS011;50896;46.714;17.322;2024-02-21T11:42:29;6.38;;;3.10;;
64520;SDS011;50896;46.714;17.322;2024-02-21T11:44:56;6.78;;;3.03;;
64520;SDS011;50896;46.714;17.322;2024-02-21T11:47:24;8.10;;;2.78;;
64520;SDS011;50896;46.714;17.322;2024-02-21T11:49:51;7.03;;;2.85;;
64520;SDS011;50896;46.714;17.322;2024-02-21T11:52:22;7.82;;;3.05;;
64520;SDS011;50896;46.714;17.322;2024-02-21T11:54:52;7.20;;;3.33;;
64520;SDS011;50896;46.714;17.322;2024-02-21T11:57:20;8.05;;;2.95;;
64520;SDS011;50896;46.714;17.322;2024-02-21T11:59:47;8.43;;;3.38;;
64520;SDS011;50896;46.714;17.322;2024-02-21T12:02:17;8.73;;;3.70;;
64520;SDS011;50896;46.714;17.322;2024-02-21T12:04:45;7.22;;;3.60;;
64520;SDS011;50896;46.714;17.322;2024-02-21T12:07:12;5.72;;;2.47;;
64520;SDS011;50896;46.714;17.322;2024-02-21T12:09:41;5.97;;;2.90;;
64520;SDS011;50896;46.714;17.322;2024-02-21T12:12:08;6.35;;;2.83;;
64520;SDS011;50896;46.714;17.322;2024-02-21T12:14:35;10.25;;;4.85;;
64520;SDS011;50896;46.714;17.322;2024-02-21T12:17:02;11.45;;;3.40;;
64520;SDS011;50896;46.714;17.322;2024-02-21T12:19:31;8.88;;;2.80;;
64520;SDS011;50896;46.714;17.322;2024-02-21T12:21:59;7.35;;;3.10;;
64520;SDS011;50896;46.714;17.322;2024-02-21T12:24:27;8.18;;;3.03;;
64520;SDS011;50896;46.714;17.322;2024-02-21T12:26:55;8.02;;;2.60;;
64520;SDS011;50896;46.714;17.322;2024-02-21T12:29:23;4.88;;;2.45;;
64520;SDS011;50896;46.714;17.322;2024-02-21T12:31:56;8.73;;;2.97;;
64520;SDS011;50896;46.714;17.322;2024-02-21T12:34:23;6.15;;;2.22;;
64520;SDS011;50896;46.714;17.322;2024-02-21T12:37:10;4.45;;;2.35;;
64520;SDS011;50896;46.714;17.322;2024-02-21T12:39:40;6.05;;;1.75;;
64520;SDS011;50896;46.714;17.322;2024-02-21T12:42:06;4.55;;;1.92;;
64520;SDS011;50896;46.714;17.322;2024-02-21T12:44:33;5.18;;;2.13;;
64520;SDS011;50896;46.714;17.322;2024-02-21T12:47:00;4.97;;;2.25;;
64520;SDS011;50896;46.714;17.322;2024-02-21T12:49:27;9.95;;;2.45;;
64520;SDS011;50896;46.714;17.322;2024-02-21T12:51:56;5.20;;;1.80;;
64520;SDS011;50896;46.714;17.322;2024-02-21T12:54:23;6.10;;;2.17;;
64520;SDS011;50896;46.714;17.322;2024-02-21T12:56:50;6.20;;;2.53;;
64520;SDS011;50896;46.714;17.322;2024-02-21T12:59:17;5.88;;;1.63;;
64520;SDS011;50896;46.714;17.322;2024-02-21T13:01:43;4.45;;;2.47;;
64520;SDS011;50896;46.714;17.322;2024-02-21T13:04:11;5.30;;;2.88;;
64520;SDS011;50896;46.714;17.322;2024-02-21T13:06:39;14.52;;;4.38;;
64520;SDS011;50896;46.714;17.322;2024-02-21T13:09:06;4.05;;;2.10;;
64520;SDS011;50896;46.714;17.322;2024-02-21T13:11:37;5.05;;;2.03;;
64520;SDS011;50896;46.714;17.322;2024-02-21T13:14:04;6.78;;;2.03;;
64520;SDS011;50896;46.714;17.322;2024-02-21T13:16:31;5.22;;;2.17;;
64520;SDS011;50896;46.714;17.322;2024-02-21T13:18:58;4.50;;;2.08;;
64520;SDS011;50896;46.714;17.322;2024-02-21T13:21:25;5.75;;;2.00;;
64520;SDS011;50896;46.714;17.322;2024-02-21T13:23:52;6.35;;;1.85;;
64520;SDS011;50896;46.714;17.322;2024-02-21T13:26:19;4.65;;;1.75;;
64520;SDS011;50896;46.714;17.322;2024-02-21T13:28:46;4.57;;;1.80;;
64520;SDS011;50896;46.714;17.322;2024-02-21T13:31:14;5.10;;;1.83;;
64520;SDS011;50896;46.714;17.322;2024-02-21T13:33:43;3.50;;;1.85;;
64520;SDS011;50896;46.714;17.322;2024-02-21T13:36:11;5.03;;;1.70;;
64520;SDS011;50896;46.714;17.322;2024-02-21T13:38:38;5.80;;;2.50;;
64520;SDS011;50896;46.714;17.322;2024-02-21T13:41:05;5.80;;;2.60;;
64520;SDS011;50896;46.714;17.322;2024-02-21T13:43:35;6.22;;;2.35;;
64520;SDS011;50896;46.714;17.322;2024-02-21T13:46:02;6.53;;;2.10;;
64520;SDS011;50896;46.714;17.322;2024-02-21T13:48:31;3.50;;;2.00;;
64520;SDS011;50896;46.714;17.322;2024-02-21T13:51:00;5.10;;;2.03;;
64520;SDS011;50896;46.714;17.322;2024-02-21T13:53:28;6.00;;;2.15;;
64520;SDS011;50896;46.714;17.322;2024-02-21T13:55:55;5.88;;;2.25;;
64520;SDS011;50896;46.714;17.322;2024-02-21T13:58:23;4.25;;;2.15;;
64520;SDS011;50896;46.714;17.322;2024-02-21T14:00:51;5.68;;;2.38;;
64520;SDS011;50896;46.714;17.322;2024-02-21T14:03:19;5.95;;;2.50;;
64520;SDS011;50896;46.714;17.322;2024-02-21T14:05:47;9.10;;;1.92;;
64520;SDS011;50896;46.714;17.322;2024-02-21T14:08:15;3.20;;;2.00;;
64520;SDS011;50896;46.714;17.322;2024-02-21T14:10:42;6.35;;;1.60;;
64520;SDS011;50896;46.714;17.322;2024-02-21T14:13:09;2.88;;;1.80;;
64520;SDS011;50896;46.714;17.322;2024-02-21T14:15:36;2.88;;;1.77;;
64520;SDS011;50896;46.714;17.322;2024-02-21T14:18:04;3.92;;;1.70;;
64520;SDS011;50896;46.714;17.322;2024-02-21T14:20:35;6.55;;;2.85;;
64520;SDS011;50896;46.714;17.322;2024-02-21T14:23:02;4.70;;;2.28;;
64520;SDS011;50896;46.714;17.322;2024-02-21T14:25:31;6.32;;;2.47;;
64520;SDS011;50896;46.714;17.322;2024-02-21T14:28:00;5.95;;;1.95;;
64520;SDS011;50896;46.714;17.322;2024-02-21T14:30:29;5.00;;;2.10;;
64520;SDS011;50896;46.714;17.322;2024-02-21T14:32:56;3.58;;;2.00;;
64520;SDS011;50896;46.714;17.322;2024-02-21T14:35:23;4.43;;;1.95;;
64520;SDS011;50896;46.714;17.322;2024-02-21T14:37:50;4.20;;;1.88;;
64520;SDS011;50896;46.714;17.322;2024-02-21T14:40:19;6.47;;;2.40;;
64520;SDS011;50896;46.714;17.322;2024-02-21T14:42:47;7.10;;;2.03;;